Time;durP1;ratioP1;P1;durP2;ratioP2;P2;SDS_P1;SDS_P2;PMS_P1;PMS_P2;Temp;Humidity;BMP_temperature;BMP_pressure;BME280_temperature;BME280_humidity;BME280_pressure;Samples;Min_cycle;Max_cycle;Signal;HPM_P1;HPM_P2
2022/04/08 00:01:02;;;;;;;5.30;2.10;;;7.00;99.90;;;;;;5071699;28;20615;-46
2022/04/08 00:03:28;;;;;;;4.13;1.83;;;7.10;99.90;;;;;;5071472;28;20228;-46
2022/04/08 00:05:54;;;;;;;2.50;1.45;;;7.10;99.90;;;;;;5071858;28;20206;-46
2022/04/08 00:08:20;;;;;;;9.70;2.70;;;7.00;99.90;;;;;;5071735;28;20264;-46
2022/04/08 00:10:46;;;;;;;2.95;2.00;;;7.00;99.90;;;;;;5071374;28;20220;-46
2022/04/08 00:13:12;;;;;;;2.92;1.80;;;6.90;99.90;;;;;;5072015;28;20209;-46
2022/04/08 00:15:38;;;;;;;3.60;2.50;;;6.90;99.90;;;;;;5071518;28;20220;-46
2022/04/08 00:18:04;;;;;;;3.05;1.95;;;6.90;99.90;;;;;;5071861;28;20578;-46
2022/04/08 00:20:32;;;;;;;1.52;1.42;;;6.80;99.90;;;;;;5072074;28;20256;-46
2022/04/08 00:22:58;;;;;;;4.43;2.10;;;6.80;99.90;;;;;;5071720;28;20250;-46
2022/04/08 00:25:24;;;;;;;1.92;1.50;;;6.80;99.90;;;;;;5072052;28;20513;-46
2022/04/08 00:27:49;;;;;;;3.25;1.75;;;6.70;99.90;;;;;;5071725;28;20216;-46
2022/04/08 00:30:15;;;;;;;2.08;1.40;;;6.80;99.90;;;;;;5071650;28;20173;-46
2022/04/08 00:32:40;;;;;;;1.52;1.40;;;6.70;99.90;;;;;;5072006;28;20194;-46
2022/04/08 00:35:06;;;;;;;1.75;1.50;;;6.70;99.90;;;;;;5071642;28;20224;-46
2022/04/08 00:37:32;;;;;;;1.83;1.65;;;6.70;99.90;;;;;;5071669;28;20627;-46
2022/04/08 00:39:57;;;;;;;6.88;1.65;;;6.70;99.90;;;;;;5071568;28;20182;-46
2022/04/08 00:42:23;;;;;;;2.60;1.65;;;6.60;99.90;;;;;;5071553;28;20165;-46
2022/04/08 00:44:48;;;;;;;3.20;1.90;;;6.60;99.90;;;;;;5071730;28;20174;-46
2022/04/08 00:47:15;;;;;;;3.60;2.00;;;6.60;99.90;;;;;;5071747;28;20612;-46
2022/04/08 00:49:41;;;;;;;3.15;2.08;;;6.50;99.90;;;;;;5072036;28;20166;-46
2022/04/08 00:52:07;;;;;;;2.72;1.95;;;6.50;99.90;;;;;;5073782;28;20240;-46
2022/04/08 00:54:33;;;;;;;5.70;3.30;;;6.50;99.90;;;;;;5075485;28;20247;-46
2022/04/08 00:56:59;;;;;;;3.90;2.67;;;6.50;99.90;;;;;;5075135;28;20166;-46
2022/04/08 00:59:26;;;;;;;4.05;2.55;;;6.50;99.90;;;;;;5074008;28;20173;-46
2022/04/08 01:01:52;;;;;;;4.88;2.53;;;6.60;99.90;;;;;;5074942;28;20218;-46
2022/04/08 01:04:17;;;;;;;4.40;2.30;;;6.50;99.90;;;;;;5075207;28;20166;-46
2022/04/08 01:06:44;;;;;;;3.50;2.20;;;6.50;99.90;;;;;;5075345;28;20174;-46
2022/04/08 01:09:10;;;;;;;4.60;2.10;;;6.50;99.90;;;;;;5075300;28;20223;-46
2022/04/08 01:11:37;;;;;;;5.93;2.28;;;6.40;99.90;;;;;;5074982;28;20166;-46
2022/04/08 01:14:16;;;;;;;6.72;1.60;;;6.50;99.90;;;;;;5074773;28;20201;-46
2022/04/08 01:16:42;;;;;;;5.80;1.83;;;6.50;99.90;;;;;;5075430;28;20177;-46
2022/04/08 01:19:08;;;;;;;2.63;2.00;;;6.40;99.90;;;;;;5075044;28;20170;-46
2022/04/08 01:21:34;;;;;;;6.25;2.80;;;6.40;99.90;;;;;;5074782;28;20529;-46
2022/04/08 01:24:01;;;;;;;2.85;2.30;;;6.40;99.90;;;;;;5074815;28;20178;-46
2022/04/08 01:26:27;;;;;;;5.45;2.38;;;6.40;99.90;;;;;;5074603;28;20182;-46
2022/04/08 01:28:54;;;;;;;5.38;2.20;;;6.30;99.90;;;;;;5074714;28;20173;-46
2022/04/08 01:31:20;;;;;;;5.43;2.15;;;6.40;99.90;;;;;;5074462;28;20537;-47
2022/04/08 01:33:46;;;;;;;3.70;2.05;;;6.30;99.90;;;;;;5074556;28;20205;-47
2022/04/08 01:36:11;;;;;;;3.85;2.67;;;6.30;99.90;;;;;;5074921;28;20178;-47
2022/04/08 01:38:37;;;;;;;6.78;2.33;;;6.30;99.90;;;;;;5074448;28;20170;-47
2022/04/08 01:41:03;;;;;;;6.90;2.15;;;6.30;99.90;;;;;;5074419;28;20211;-46
2022/04/08 01:43:28;;;;;;;4.78;2.00;;;6.30;99.90;;;;;;5074351;28;20170;-47
2022/04/08 01:45:54;;;;;;;6.57;2.50;;;6.20;99.90;;;;;;5074395;28;20581;-46
2022/04/08 01:48:19;;;;;;;7.53;2.30;;;6.20;99.90;;;;;;5074291;28;20248;-46
2022/04/08 01:50:45;;;;;;;6.20;2.63;;;6.20;99.90;;;;;;5074216;28;20174;-46
2022/04/08 01:53:11;;;;;;;7.97;2.20;;;6.10;99.90;;;;;;5074430;28;20206;-47
2022/04/08 01:55:36;;;;;;;5.00;2.83;;;6.10;99.90;;;;;;5074360;28;20162;-47
2022/04/08 01:58:02;;;;;;;4.38;2.10;;;6.20;99.90;;;;;;5074377;28;20249;-46
2022/04/08 02:00:31;;;;;;;6.15;2.42;;;6.20;99.90;;;;;;5074355;28;20534;-46
2022/04/08 02:02:57;;;;;;;4.75;2.53;;;6.20;99.90;;;;;;5073458;28;20214;-46
2022/04/08 02:05:23;;;;;;;6.28;2.30;;;6.30;99.90;;;;;;5073966;28;20177;-47
2022/04/08 02:07:49;;;;;;;4.68;2.90;;;6.30;99.90;;;;;;5073993;28;20203;-46
2022/04/08 02:10:15;;;;;;;6.72;2.70;;;6.30;99.90;;;;;;5073810;28;20181;-46
2022/04/08 02:12:40;;;;;;;4.28;2.88;;;6.40;99.90;;;;;;5074437;28;20194;-46
2022/04/08 02:15:07;;;;;;;6.15;3.70;;;6.40;99.90;;;;;;5073782;28;20239;-47
2022/04/08 02:17:33;;;;;;;6.13;3.10;;;6.40;99.90;;;;;;5073776;28;20172;-46
2022/04/08 02:19:59;;;;;;;5.03;3.38;;;6.40;99.90;;;;;;5073702;28;20256;-47
2022/04/08 02:22:25;;;;;;;9.30;3.35;;;6.40;99.90;;;;;;5073672;28;20220;-46
2022/04/08 02:24:51;;;;;;;8.48;3.97;;;6.40;99.90;;;;;;5055901;28;20176;-46
2022/04/08 02:27:17;;;;;;;7.60;3.72;;;6.40;99.90;;;;;;5073832;28;20245;-46
2022/04/08 02:29:43;;;;;;;4.18;2.92;;;6.40;99.90;;;;;;5073755;28;20187;-46
2022/04/08 02:32:10;;;;;;;5.53;3.25;;;6.30;99.90;;;;;;5073709;28;20170;-47
2022/04/08 02:34:39;;;;;;;6.60;3.47;;;6.30;99.90;;;;;;5073303;28;20169;-46
2022/04/08 02:37:06;;;;;;;7.82;3.63;;;6.30;99.90;;;;;;5073661;28;20519;-46
2022/04/08 02:39:31;;;;;;;3.50;3.03;;;6.30;99.90;;;;;;5073362;28;20162;-46
2022/04/08 02:41:57;;;;;;;6.32;3.30;;;6.20;99.90;;;;;;5073598;28;20170;-46
2022/04/08 02:44:23;;;;;;;8.50;3.15;;;6.20;99.90;;;;;;5073279;28;20165;-46
2022/04/08 02:46:48;;;;;;;4.90;2.70;;;6.20;99.90;;;;;;5073254;28;20626;-46
2022/04/08 02:49:14;;;;;;;4.35;3.22;;;6.20;99.90;;;;;;5073104;28;20200;-46
2022/04/08 02:51:40;;;;;;;3.97;2.25;;;6.10;99.90;;;;;;5073371;28;20166;-46
2022/04/08 02:54:05;;;;;;;10.02;2.90;;;6.10;99.90;;;;;;5073163;28;20225;-46
2022/04/08 02:56:31;;;;;;;3.10;1.88;;;6.10;99.90;;;;;;5071729;28;20162;-46
2022/04/08 02:58:57;;;;;;;5.40;2.55;;;6.00;99.90;;;;;;5072947;28;20280;-47
2022/04/08 03:01:23;;;;;;;5.82;2.58;;;6.10;99.90;;;;;;5072955;28;20177;-46
2022/04/08 03:03:48;;;;;;;3.83;2.50;;;6.00;99.90;;;;;;5072930;28;20185;-46
2022/04/08 03:06:14;;;;;;;5.95;2.28;;;6.00;99.90;;;;;;5073078;28;20170;-46
2022/04/08 03:08:40;;;;;;;3.55;2.00;;;5.90;99.90;;;;;;5073039;28;20245;-46
2022/04/08 03:11:05;;;;;;;3.35;2.30;;;5.90;99.90;;;;;;5072921;28;20166;-46
2022/04/08 03:13:31;;;;;;;4.22;2.00;;;5.90;99.90;;;;;;5070645;28;20206;-46
2022/04/08 03:15:57;;;;;;;6.10;2.22;;;5.90;99.90;;;;;;5072630;28;20170;-46
2022/04/08 03:18:23;;;;;;;6.43;2.92;;;5.90;99.90;;;;;;5072526;28;20174;-46
2022/04/08 03:20:48;;;;;;;6.30;3.00;;;5.90;99.90;;;;;;5072535;28;20189;-46
2022/04/08 03:23:14;;;;;;;4.50;2.80;;;5.90;99.90;;;;;;5072534;28;20527;-46
2022/04/08 03:25:39;;;;;;;4.30;3.47;;;5.90;99.90;;;;;;5072950;28;20627;-47
2022/04/08 03:28:05;;;;;;;4.13;3.17;;;5.90;99.90;;;;;;5072320;28;20253;-47
2022/04/08 03:30:31;;;;;;;6.50;4.05;;;5.80;99.90;;;;;;5072608;28;20237;-47
2022/04/08 03:32:57;;;;;;;10.52;3.63;;;5.90;99.90;;;;;;5072270;28;20565;-47
2022/04/08 03:35:23;;;;;;;6.35;4.32;;;5.80;99.90;;;;;;5072299;28;20166;-46
2022/04/08 03:37:48;;;;;;;5.13;3.60;;;5.80;99.90;;;;;;5072254;28;20169;-46
2022/04/08 03:40:14;;;;;;;5.40;4.13;;;5.80;99.90;;;;;;5072291;28;20627;-46
2022/04/08 03:42:40;;;;;;;6.93;4.00;;;5.80;99.90;;;;;;5072491;28;20177;-47
2022/04/08 03:45:06;;;;;;;6.88;4.07;;;5.80;99.90;;;;;;5072434;28;20176;-47
2022/04/08 03:47:31;;;;;;;6.82;4.35;;;5.80;99.90;;;;;;5072193;28;20191;-47
2022/04/08 03:49:57;;;;;;;9.50;4.82;;;5.80;99.90;;;;;;5072354;28;20228;-47
2022/04/08 03:52:23;;;;;;;6.57;4.88;;;5.80;99.90;;;;;;5072044;28;20173;-46
2022/04/08 03:54:49;;;;;;;8.43;4.97;;;5.90;99.90;;;;;;5071990;28;20261;-47
2022/04/08 03:57:14;;;;;;;7.95;5.13;;;5.90;99.90;;;;;;5072028;28;20249;-46
2022/04/08 03:59:40;;;;;;;7.35;4.75;;;5.80;99.90;;;;;;5072319;28;20533;-47
2022/04/08 04:02:07;;;;;;;12.00;5.05;;;5.90;99.90;;;;;;5072018;28;20240;-47
2022/04/08 04:04:33;;;;;;;8.35;5.32;;;5.90;99.90;;;;;;5071904;28;20706;-47
2022/04/08 04:06:58;;;;;;;9.13;5.93;;;5.90;99.90;;;;;;5071892;28;20166;-47
2022/04/08 04:09:24;;;;;;;8.38;5.55;;;5.90;99.90;;;;;;5071956;28;20304;-46
2022/04/08 04:11:50;;;;;;;9.82;5.72;;;5.90;99.90;;;;;;5071975;28;20170;-47
2022/04/08 04:14:15;;;;;;;7.80;5.50;;;5.90;99.90;;;;;;5071716;28;20213;-46
2022/04/08 04:16:41;;;;;;;6.13;5.32;;;5.90;99.90;;;;;;5072211;28;20211;-47
2022/04/08 04:19:07;;;;;;;10.20;5.85;;;5.90;99.90;;;;;;5071701;28;20169;-47
2022/04/08 04:21:33;;;;;;;9.77;5.47;;;5.90;99.90;;;;;;5072037;28;20162;-46
2022/04/08 04:23:58;;;;;;;7.10;5.07;;;5.90;99.90;;;;;;5071707;28;20256;-47
2022/04/08 04:26:24;;;;;;;10.70;5.72;;;5.90;99.90;;;;;;5074983;28;20170;-46
2022/04/08 04:28:49;;;;;;;11.68;6.30;;;5.80;99.90;;;;;;5075819;28;20319;-47
2022/04/08 04:31:15;;;;;;;9.75;5.15;;;5.80;99.90;;;;;;5075624;28;20645;-47
2022/04/08 04:33:40;;;;;;;7.85;4.97;;;5.80;99.90;;;;;;5075983;28;20209;-47
2022/04/08 04:36:06;;;;;;;11.25;5.38;;;5.80;99.90;;;;;;5075658;28;20197;-47
2022/04/08 04:38:31;;;;;;;7.55;5.40;;;5.80;99.90;;;;;;5075584;28;20530;-47
2022/04/08 04:40:57;;;;;;;8.07;5.53;;;5.80;99.90;;;;;;5075617;28;20169;-47
2022/04/08 04:43:22;;;;;;;9.23;5.47;;;5.70;99.90;;;;;;5075720;28;20260;-47
2022/04/08 04:45:48;;;;;;;13.15;6.65;;;5.80;99.90;;;;;;5074292;28;20509;-47
2022/04/08 04:48:13;;;;;;;17.13;7.93;;;5.70;99.90;;;;;;5075608;28;20181;-47
2022/04/08 04:50:39;;;;;;;17.02;9.10;;;5.80;99.90;;;;;;5075596;28;20650;-47
2022/04/08 04:53:06;;;;;;;17.73;10.10;;;5.80;99.90;;;;;;5075488;28;20201;-46
2022/04/08 04:55:32;;;;;;;16.83;7.32;;;5.80;99.90;;;;;;5075446;28;20534;-47
2022/04/08 04:57:57;;;;;;;18.65;9.15;;;5.80;99.90;;;;;;5075188;28;20626;-47
2022/04/08 05:00:23;;;;;;;14.52;7.78;;;5.80;99.90;;;;;;5075197;28;20170;-47
2022/04/08 05:02:49;;;;;;;9.77;7.32;;;5.80;99.90;;;;;;5075011;28;20222;-47
2022/04/08 05:05:15;;;;;;;9.10;6.63;;;5.80;99.90;;;;;;5075111;28;20591;-47
2022/04/08 05:07:41;;;;;;;11.23;6.88;;;5.80;99.90;;;;;;5075335;28;20188;-47
2022/04/08 05:10:07;;;;;;;11.77;7.18;;;5.80;99.90;;;;;;5075051;28;20173;-47
2022/04/08 05:12:36;;;;;;;16.92;7.43;;;5.80;99.90;;;;;;5074965;28;20166;-46
2022/04/08 05:15:06;;;;;;;11.93;6.85;;;5.80;99.90;;;;;;5075331;28;20201;-47
2022/04/08 05:17:35;;;;;;;10.23;6.75;;;5.80;99.90;;;;;;5075185;28;20170;-46
2022/04/08 05:20:08;;;;;;;11.73;5.57;;;5.80;99.90;;;;;;5074808;28;20162;-47
2022/04/08 05:22:34;;;;;;;17.60;6.15;;;5.80;99.90;;;;;;5074978;28;20236;-47
2022/04/08 05:25:00;;;;;;;11.63;5.68;;;5.80;99.90;;;;;;5074624;28;20650;-46
2022/04/08 05:27:26;;;;;;;10.23;6.13;;;5.80;99.90;;;;;;5074642;28;20174;-46
2022/04/08 05:29:52;;;;;;;11.20;5.22;;;5.80;99.90;;;;;;5074342;28;20181;-46
2022/04/08 05:32:18;;;;;;;9.90;5.60;;;5.80;99.90;;;;;;5074420;28;20166;-46
2022/04/08 05:34:43;;;;;;;10.40;5.03;;;5.80;99.90;;;;;;5074447;28;20217;-46
2022/04/08 05:37:09;;;;;;;11.90;5.03;;;5.80;99.90;;;;;;5073978;28;20212;-46
2022/04/08 05:39:34;;;;;;;11.95;5.22;;;5.80;99.90;;;;;;5074436;28;20606;-46
2022/04/08 05:42:00;;;;;;;15.07;5.90;;;5.80;99.90;;;;;;5074279;28;20161;-46
2022/04/08 05:44:26;;;;;;;10.50;5.28;;;5.90;99.90;;;;;;5072968;28;20536;-46
2022/04/08 05:46:51;;;;;;;9.77;4.35;;;5.90;99.90;;;;;;5074417;28;20627;-46
2022/04/08 05:49:17;;;;;;;9.77;4.32;;;5.90;99.90;;;;;;5074325;28;20692;-46
2022/04/08 05:51:45;;;;;;;11.68;4.20;;;6.00;99.90;;;;;;5074482;28;20176;-46
2022/04/08 05:54:11;;;;;;;12.52;4.95;;;6.00;99.90;;;;;;5074533;28;20210;-46
2022/04/08 05:56:36;;;;;;;11.40;4.78;;;6.10;99.90;;;;;;5073921;28;20192;-46
2022/04/08 05:59:02;;;;;;;8.95;4.18;;;6.00;99.90;;;;;;5073963;28;20173;-46
2022/04/08 06:01:28;;;;;;;6.78;4.03;;;6.20;99.90;;;;;;5073734;28;20165;-46
2022/04/08 06:03:54;;;;;;;8.27;4.07;;;6.20;99.90;;;;;;5073959;28;20265;-46
2022/04/08 06:06:20;;;;;;;8.30;3.88;;;6.30;99.90;;;;;;5074043;28;20223;-46
2022/04/08 06:08:46;;;;;;;6.00;3.75;;;6.30;99.90;;;;;;5073818;28;20673;-46
2022/04/08 06:11:11;;;;;;;9.45;3.88;;;6.30;99.90;;;;;;5074563;28;20245;-46
2022/04/08 06:13:37;;;;;;;11.60;4.18;;;6.30;99.90;;;;;;5073964;28;20202;-46
2022/04/08 06:16:03;;;;;;;6.80;3.47;;;6.40;99.90;;;;;;5073888;28;20162;-47
2022/04/08 06:18:28;;;;;;;4.50;3.65;;;6.50;99.90;;;;;;5073743;28;20631;-47
2022/04/08 06:20:54;;;;;;;5.53;3.53;;;6.60;99.90;;;;;;5074071;28;20170;-47
2022/04/08 06:23:19;;;;;;;9.13;3.92;;;6.60;99.90;;;;;;5073552;28;20567;-46
2022/04/08 06:25:45;;;;;;;9.65;3.72;;;6.60;99.90;;;;;;5073862;28;20589;-46
2022/04/08 06:28:11;;;;;;;7.88;3.78;;;6.70;99.90;;;;;;5073916;28;20168;-47
2022/04/08 06:30:39;;;;;;;7.30;3.35;;;6.70;99.90;;;;;;5073443;28;20585;-46
2022/04/08 06:33:07;;;;;;;4.93;3.60;;;6.80;99.90;;;;;;5073330;28;20268;-46
2022/04/08 06:35:33;;;;;;;5.30;3.10;;;6.90;99.90;;;;;;5073582;28;20178;-46
2022/04/08 06:38:07;;;;;;;4.75;3.22;;;7.00;99.90;;;;;;5073509;28;20170;-46
2022/04/08 06:40:38;;;;;;;12.32;4.43;;;7.00;99.90;;;;;;5073498;28;20178;-46
2022/04/08 06:43:05;;;;;;;6.53;3.55;;;7.00;99.90;;;;;;5073474;28;20249;-46
2022/04/08 06:45:31;;;;;;;6.72;3.25;;;7.10;99.90;;;;;;5073407;28;20178;-46
2022/04/08 06:47:57;;;;;;;6.18;3.60;;;7.10;99.90;;;;;;5073180;28;20615;-46
2022/04/08 06:50:22;;;;;;;5.32;3.50;;;7.10;99.90;;;;;;5073156;28;20170;-46
2022/04/08 06:52:48;;;;;;;6.00;3.08;;;7.10;99.90;;;;;;5073198;28;20252;-46
2022/04/08 06:55:14;;;;;;;8.68;3.85;;;7.00;99.90;;;;;;5073092;28;20538;-46
2022/04/08 06:57:42;;;;;;;6.20;3.50;;;7.00;99.90;;;;;;5073215;28;20165;-46
2022/04/08 07:00:10;;;;;;;6.35;3.30;;;7.30;99.90;;;;;;5073080;28;20169;-46
2022/04/08 07:02:36;;;;;;;6.35;3.60;;;7.30;99.90;;;;;;5072677;28;20222;-46
2022/04/08 07:05:02;;;;;;;6.25;3.33;;;7.40;99.90;;;;;;5072846;28;20173;-46
2022/04/08 07:07:30;;;;;;;6.07;3.22;;;7.50;99.90;;;;;;5072757;28;20189;-46
2022/04/08 07:09:59;;;;;;;5.03;3.30;;;7.50;99.90;;;;;;5072686;28;20170;-46
2022/04/08 07:12:28;;;;;;;5.20;2.88;;;7.60;99.90;;;;;;5072696;28;20662;-47
2022/04/08 07:14:54;;;;;;;7.18;3.28;;;7.80;99.90;;;;;;5072729;28;20177;-47
2022/04/08 07:17:34;;;;;;;11.48;3.35;;;7.80;99.90;;;;;;5072557;28;20212;-45
2022/04/08 07:20:01;;;;;;;8.35;3.25;;;7.60;99.90;;;;;;5072509;28;20162;-46
2022/04/08 07:22:28;;;;;;;5.93;3.22;;;7.60;99.90;;;;;;5072373;28;20166;-46
2022/04/08 07:24:55;;;;;;;7.97;3.28;;;7.60;99.90;;;;;;5072516;28;20635;-46
2022/04/08 07:27:21;;;;;;;7.20;3.42;;;7.50;99.90;;;;;;5072419;28;20158;-46
2022/04/08 07:29:47;;;;;;;5.88;3.53;;;7.50;99.90;;;;;;5072401;28;20704;-45
2022/04/08 07:32:20;;;;;;;4.57;3.03;;;7.70;99.90;;;;;;5072324;28;20215;-46
2022/04/08 07:34:49;;;;;;;5.60;3.10;;;7.60;99.90;;;;;;5070310;28;20195;-46
2022/04/08 07:37:15;;;;;;;3.65;3.13;;;7.60;99.90;;;;;;5062051;28;20181;-46
2022/04/08 07:39:42;;;;;;;8.15;3.38;;;7.60;99.90;;;;;;5064547;28;20173;-46
2022/04/08 07:42:08;;;;;;;6.43;3.50;;;7.70;99.90;;;;;;5071736;28;20169;-46
2022/04/08 07:44:35;;;;;;;6.38;3.20;;;7.70;99.90;;;;;;5071585;28;20158;-45
2022/04/08 07:47:00;;;;;;;4.28;3.60;;;7.70;99.90;;;;;;5071254;28;20209;-45
2022/04/08 07:49:26;;;;;;;7.93;3.13;;;7.70;99.90;;;;;;5071394;28;20170;-45
2022/04/08 07:51:51;;;;;;;6.75;3.00;;;7.70;99.90;;;;;;5071487;28;20245;-45
2022/04/08 07:54:17;;;;;;;4.10;2.97;;;7.80;99.90;;;;;;5071812;28;20619;-45
2022/04/08 07:56:43;;;;;;;6.22;3.88;;;7.90;99.90;;;;;;5071763;28;20688;-46
2022/04/08 07:59:08;;;;;;;8.35;3.38;;;7.90;99.90;;;;;;5071579;28;20178;-45
2022/04/08 08:01:34;;;;;;;9.70;3.17;;;7.90;99.90;;;;;;5071089;28;20209;-45
2022/04/08 08:03:59;;;;;;;4.47;2.97;;;8.00;99.90;;;;;;5071219;28;20252;-45
2022/04/08 08:06:25;;;;;;;7.38;3.28;;;8.00;99.90;;;;;;5071603;28;20591;-45
2022/04/08 08:08:50;;;;;;;6.28;3.03;;;8.00;99.90;;;;;;5071092;28;20178;-47
2022/04/08 08:11:18;;;;;;;5.82;3.63;;;8.10;99.90;;;;;;5071319;28;20626;-46
2022/04/08 08:13:43;;;;;;;3.92;2.72;;;8.10;99.90;;;;;;5071454;28;20213;-46
2022/04/08 08:16:09;;;;;;;7.22;2.70;;;8.00;99.90;;;;;;5071562;28;20170;-45
2022/04/08 08:18:35;;;;;;;7.85;2.95;;;8.10;99.90;;;;;;5071214;28;20170;-45
2022/04/08 08:21:01;;;;;;;8.35;3.20;;;8.10;99.90;;;;;;5071478;28;20193;-45
2022/04/08 08:23:27;;;;;;;5.45;2.70;;;8.20;99.90;;;;;;5071024;28;20623;-45
2022/04/08 08:25:53;;;;;;;5.35;3.15;;;8.20;99.90;;;;;;5071321;28;20686;-45
2022/04/08 08:28:19;;;;;;;7.70;3.47;;;8.30;99.90;;;;;;5071110;28;20630;-45
2022/04/08 08:30:45;;;;;;;6.53;2.88;;;8.40;99.90;;;;;;5070809;28;20223;-45
2022/04/08 08:33:11;;;;;;;4.13;2.50;;;8.40;99.90;;;;;;5071133;28;20210;-45
2022/04/08 08:35:37;;;;;;;4.72;2.63;;;8.40;99.90;;;;;;5071312;28;20173;-45
2022/04/08 08:38:03;;;;;;;6.47;2.90;;;8.40;99.90;;;;;;5071231;28;20174;-45
2022/04/08 08:40:34;;;;;;;4.85;2.75;;;8.40;99.90;;;;;;5071378;28;20166;-45
2022/04/08 08:43:03;;;;;;;4.90;2.90;;;8.50;99.90;;;;;;5071067;28;20162;-45
2022/04/08 08:45:37;;;;;;;6.47;3.25;;;8.40;99.90;;;;;;5070973;28;20185;-45
2022/04/08 08:48:05;;;;;;;3.95;2.00;;;8.40;99.90;;;;;;5070958;28;20634;-45
2022/04/08 08:50:30;;;;;;;5.07;2.30;;;8.50;99.90;;;;;;5071239;28;20208;-45
2022/04/08 08:52:57;;;;;;;4.80;2.60;;;8.60;99.90;;;;;;5070772;28;20202;-45
2022/04/08 08:55:24;;;;;;;5.80;2.67;;;8.60;99.90;;;;;;5069281;28;20181;-45
2022/04/08 08:57:51;;;;;;;5.38;2.60;;;8.60;99.90;;;;;;5070839;28;20257;-45
2022/04/08 09:00:23;;;;;;;3.58;2.45;;;8.70;99.90;;;;;;5070161;28;20170;-45
2022/04/08 09:02:49;;;;;;;6.35;3.13;;;8.60;99.90;;;;;;5062145;28;20222;-45
2022/04/08 09:05:28;;;;;;;5.18;2.90;;;8.80;99.90;;;;;;5069796;28;20173;-46
2022/04/08 09:07:54;;;;;;;8.38;3.03;;;8.90;99.90;;;;;;5071512;28;20181;-45
2022/04/08 09:10:50;;;;;;;5.82;2.60;;;8.90;99.90;;;;;;5071483;28;20170;-45
2022/04/08 09:13:20;;;;;;;7.10;3.72;;;8.90;99.90;;;;;;5072290;28;20221;-45
2022/04/08 09:16:01;;;;;;;5.95;3.00;;;8.90;99.90;;;;;;5074891;28;20174;-46
2022/04/08 09:18:32;;;;;;;7.07;3.55;;;9.10;99.90;;;;;;5074640;28;20627;-46
2022/04/08 09:20:58;;;;;;;7.20;3.17;;;9.20;99.90;;;;;;5074720;28;20181;-46
2022/04/08 09:23:26;;;;;;;6.60;3.28;;;9.20;99.90;;;;;;5074911;28;20174;-46
2022/04/08 09:26:03;;;;;;;11.65;3.22;;;9.30;99.90;;;;;;5074984;28;20500;-45
2022/04/08 09:28:34;;;;;;;6.78;3.25;;;9.30;99.90;;;;;;5074839;28;20184;-45
2022/04/08 09:31:01;;;;;;;6.35;2.92;;;9.30;99.90;;;;;;5074681;28;20174;-45
2022/04/08 09:33:27;;;;;;;6.47;2.88;;;9.40;99.90;;;;;;5074524;28;20246;-46
2022/04/08 09:35:57;;;;;;;4.65;3.10;;;9.40;99.90;;;;;;5074134;28;20249;-45
2022/04/08 09:38:26;;;;;;;8.93;3.00;;;9.30;99.90;;;;;;5074285;28;20184;-46
2022/04/08 09:41:02;;;;;;;8.60;3.60;;;9.30;99.90;;;;;;5074255;28;20619;-45
2022/04/08 09:43:33;;;;;;;6.03;3.65;;;9.20;99.90;;;;;;5074594;28;20174;-46
2022/04/08 09:46:12;;;;;;;6.60;3.03;;;9.40;99.90;;;;;;5073137;28;20166;-45
2022/04/08 09:48:38;;;;;;;8.27;2.95;;;9.30;99.90;;;;;;5073265;28;20506;-46
2022/04/08 09:51:09;;;;;;;8.07;3.55;;;9.40;99.90;;;;;;5074316;28;20237;-46
2022/04/08 09:53:40;;;;;;;5.13;2.70;;;9.40;99.90;;;;;;5074338;28;20293;-46
2022/04/08 09:56:14;;;;;;;7.57;3.40;;;9.40;99.90;;;;;;5074240;28;20166;-45
2022/04/08 09:58:45;;;;;;;7.50;3.10;;;9.40;99.90;;;;;;5074495;28;20257;-45
2022/04/08 10:01:11;;;;;;;6.80;3.33;;;9.40;99.90;;;;;;5074225;28;20619;-45
2022/04/08 10:03:37;;;;;;;5.10;3.35;;;9.50;99.90;;;;;;5074500;28;20185;-46
2022/04/08 10:06:03;;;;;;;5.00;2.97;;;9.40;99.90;;;;;;5073999;28;20176;-46
2022/04/08 10:08:30;;;;;;;6.60;3.42;;;9.40;99.90;;;;;;5074234;28;20192;-45
2022/04/08 10:11:06;;;;;;;6.10;3.05;;;9.50;99.90;;;;;;5073851;28;20181;-46
2022/04/08 10:13:44;;;;;;;4.80;2.90;;;9.50;99.90;;;;;;5074062;28;20240;-46
2022/04/08 10:16:19;;;;;;;4.20;3.20;;;10.30;99.90;;;;;;5074050;28;20162;-46
2022/04/08 10:18:46;;;;;;;4.75;2.80;;;9.50;99.90;;;;;;5073998;28;20227;-45
2022/04/08 10:21:13;;;;;;;6.32;3.33;;;9.40;99.90;;;;;;5073733;28;20173;-45
2022/04/08 10:23:55;;;;;;;6.65;3.03;;;9.40;99.90;;;;;;5073855;28;20182;-46
2022/04/08 10:26:26;;;;;;;6.40;3.55;;;9.50;99.90;;;;;;5073919;28;20311;-45
2022/04/08 10:28:53;;;;;;;5.35;3.40;;;9.40;99.90;;;;;;5073957;28;20184;-47
2022/04/08 10:31:22;;;;;;;7.28;3.75;;;9.40;99.90;;;;;;5073553;28;20177;-46
2022/04/08 10:33:49;;;;;;;5.32;2.78;;;9.40;99.90;;;;;;5073582;28;20205;-46
2022/04/08 10:36:15;;;;;;;6.43;2.78;;;9.50;99.90;;;;;;5073500;28;20172;-46
2022/04/08 10:38:41;;;;;;;4.88;2.42;;;9.30;99.90;;;;;;5073811;28;20530;-47
2022/04/08 10:41:09;;;;;;;5.22;2.50;;;9.20;99.90;;;;;;5073623;28;20162;-47
2022/04/08 10:43:52;;;;;;;4.15;3.17;;;9.30;99.90;;;;;;5073552;28;20166;-47
2022/04/08 10:46:30;;;;;;;5.65;2.58;;;9.30;99.90;;;;;;5073317;28;20256;-47
2022/04/08 10:48:57;;;;;;;4.18;2.53;;;9.40;99.90;;;;;;5073441;28;20202;-47
2022/04/08 10:51:23;;;;;;;5.57;2.63;;;9.30;99.90;;;;;;5073075;28;20643;-47
2022/04/08 10:53:49;;;;;;;6.43;2.70;;;9.30;99.90;;;;;;5073216;28;20210;-47
2022/04/08 10:56:15;;;;;;;6.22;2.65;;;9.20;99.90;;;;;;5073077;28;20507;-46
2022/04/08 10:58:40;;;;;;;4.72;2.08;;;9.30;99.90;;;;;;5073212;28;20170;-47
2022/04/08 11:01:13;;;;;;;4.13;2.83;;;9.30;99.90;;;;;;5073049;28;20197;-47
2022/04/08 11:03:44;;;;;;;5.07;2.42;;;9.30;99.90;;;;;;5073031;28;20201;-47
2022/04/08 11:06:10;;;;;;;5.25;2.20;;;9.30;99.90;;;;;;5073290;28;20522;-46
2022/04/08 11:08:36;;;;;;;5.03;2.88;;;9.30;99.90;;;;;;5072700;28;20158;-46
2022/04/08 11:11:01;;;;;;;4.78;2.13;;;9.30;99.90;;;;;;5072680;28;20678;-46
2022/04/08 11:13:27;;;;;;;3.58;2.20;;;9.20;99.90;;;;;;5072631;28;20214;-46
2022/04/08 11:15:52;;;;;;;5.57;2.63;;;9.40;99.90;;;;;;5072605;28;20169;-46
2022/04/08 11:18:19;;;;;;;4.50;2.72;;;9.50;99.90;;;;;;5072803;28;20247;-45
2022/04/08 11:20:51;;;;;;;8.90;2.22;;;9.50;99.90;;;;;;5072560;28;20161;-45
2022/04/08 11:23:30;;;;;;;4.30;2.08;;;9.60;99.90;;;;;;5072374;28;20165;-45
2022/04/08 11:25:56;;;;;;;5.05;2.75;;;9.60;99.90;;;;;;5072354;28;20174;-46
2022/04/08 11:28:22;;;;;;;5.05;2.85;;;9.60;99.90;;;;;;5072330;28;20180;-46
2022/04/08 11:30:54;;;;;;;4.72;2.80;;;9.60;99.90;;;;;;5072389;28;20265;-45
2022/04/08 11:33:20;;;;;;;7.07;2.88;;;9.50;99.90;;;;;;5072278;28;20237;-45
2022/04/08 11:35:46;;;;;;;4.80;2.65;;;9.60;99.90;;;;;;5071615;28;20265;-46
2022/04/08 11:38:17;;;;;;;6.90;3.22;;;9.70;99.90;;;;;;5072356;28;20237;-45
2022/04/08 11:40:44;;;;;;;5.93;2.72;;;9.70;99.90;;;;;;5072218;28;20643;-45
2022/04/08 11:43:13;;;;;;;2.58;2.35;;;9.50;99.90;;;;;;5072519;28;20166;-46
2022/04/08 11:45:38;;;;;;;3.90;2.88;;;9.50;99.90;;;;;;5072516;28;20162;-46
2022/04/08 11:48:06;;;;;;;4.28;2.50;;;9.50;99.90;;;;;;5072222;28;20169;-46
2022/04/08 11:50:35;;;;;;;7.97;3.20;;;9.60;99.90;;;;;;5070797;28;20173;-46
2022/04/08 11:53:01;;;;;;;5.93;3.08;;;9.50;99.90;;;;;;5070783;28;20202;-46
2022/04/08 11:55:27;;;;;;;6.50;2.85;;;9.50;99.90;;;;;;5072331;28;20220;-46
2022/04/08 11:57:55;;;;;;;5.95;2.92;;;9.60;99.90;;;;;;5072217;28;20172;-46
2022/04/08 12:00:25;;;;;;;7.93;2.78;;;9.60;99.90;;;;;;5072330;28;20193;-46
2022/04/08 12:02:51;;;;;;;7.10;3.20;;;9.70;99.90;;;;;;5070532;28;20583;-46
2022/04/08 12:05:24;;;;;;;4.95;3.80;;;9.80;99.90;;;;;;5071806;28;20566;-46
2022/04/08 12:07:59;;;;;;;6.38;3.20;;;9.70;99.90;;;;;;5072223;28;20173;-46
2022/04/08 12:10:26;;;;;;;4.07;2.97;;;9.70;99.90;;;;;;5072294;28;20211;-46
2022/04/08 12:12:53;;;;;;;5.25;3.08;;;9.60;99.90;;;;;;5072136;28;22160;-46
2022/04/08 12:15:22;;;;;;;7.85;3.67;;;9.70;99.90;;;;;;5072129;28;20177;-47
2022/04/08 12:17:49;;;;;;;5.63;3.22;;;9.60;99.90;;;;;;5072113;28;20166;-46
2022/04/08 12:20:17;;;;;;;5.00;3.80;;;9.60;99.90;;;;;;5071996;28;20173;-46
2022/04/08 12:22:50;;;;;;;6.18;2.90;;;9.60;99.90;;;;;;5071771;28;20647;-46
2022/04/08 12:25:19;;;;;;;5.72;3.63;;;9.70;99.90;;;;;;5072086;28;20178;-46
2022/04/08 12:43:25;;;;;;;7.57;3.08;;;9.60;99.90;;;;;;5171555;27;20454;-56
2022/04/08 12:45:51;;;;;;;7.80;2.83;;;9.80;99.90;;;;;;5150931;27;20535;-56
2022/04/08 12:48:16;;;;;;;8.05;3.40;;;9.70;99.90;;;;;;5150903;27;20167;-56
2022/04/08 12:50:42;;;;;;;6.68;3.20;;;9.80;99.90;;;;;;5150694;27;20164;-56
2022/04/08 12:53:07;;;;;;;7.53;4.20;;;9.70;99.90;;;;;;5151276;27;20511;-56
2022/04/08 12:55:33;;;;;;;9.10;3.92;;;9.60;99.90;;;;;;5150630;27;20612;-56
2022/04/08 12:57:58;;;;;;;10.60;3.42;;;9.60;99.90;;;;;;5149321;27;20171;-53
2022/04/08 13:00:24;;;;;;;5.75;3.53;;;9.60;99.90;;;;;;5150739;27;20171;-54
2022/04/08 13:02:52;;;;;;;4.47;3.40;;;9.50;99.90;;;;;;5150868;27;20564;-54
2022/04/08 13:05:17;;;;;;;6.15;3.47;;;9.50;99.90;;;;;;5150823;27;20188;-53
2022/04/08 13:07:43;;;;;;;4.05;3.03;;;9.40;99.90;;;;;;5149750;27;20167;-53
2022/04/08 13:10:09;;;;;;;5.53;3.40;;;9.50;99.90;;;;;;5150218;27;20796;-53